Time;durP1;ratioP1;P1;durP2;ratioP2;P2;SDS_P1;SDS_P2;PMS_P1;PMS_P2;Temp;Humidity;BMP_temperature;BMP_pressure;BME280_temperature;BME280_humidity;BME280_pressure;Samples;Min_cycle;Max_cycle;Signal;HPM_P1;HPM_P2
2023/03/30 00:00:23;;;;;;;1.10;0.88;;;;;;;;;;5016525;28;20117;-77
2023/03/30 00:02:52;;;;;;;1.85;0.98;;;;;;;;;;5018362;28;20032;-76
2023/03/30 00:05:18;;;;;;;1.13;0.93;;;;;;;;;;5015187;28;20030;-77
2023/03/30 00:07:44;;;;;;;1.17;1.00;;;;;;;;;;5022725;28;20068;-77
2023/03/30 00:10:16;;;;;;;1.08;0.98;;;;;;;;;;5026461;28;20033;-77
2023/03/30 00:12:44;;;;;;;1.70;0.88;;;;;;;;;;5020829;28;20057;-76
2023/03/30 00:15:11;;;;;;;0.93;0.77;;;;;;;;;;5024305;28;20033;-77
2023/03/30 00:17:37;;;;;;;1.35;1.00;;;;;;;;;;5020570;28;20495;-77
2023/03/30 00:20:10;;;;;;;1.33;0.82;;;;;;;;;;5020109;28;20091;-77
2023/03/30 00:22:36;;;;;;;0.85;0.77;;;;;;;;;;5013887;28;20030;-77
2023/03/30 00:25:02;;;;;;;1.48;1.00;;;;;;;;;;5020823;28;20042;-77
2023/03/30 00:27:28;;;;;;;1.42;1.15;;;;;;;;;;5026493;28;20515;-77
2023/03/30 00:29:54;;;;;;;3.33;1.17;;;;;;;;;;5026622;28;20040;-78
2023/03/30 00:32:20;;;;;;;1.38;1.10;;;;;;;;;;5019359;28;20036;-77
2023/03/30 00:34:46;;;;;;;1.10;0.90;;;;;;;;;;5023948;28;20041;-77
2023/03/30 00:37:14;;;;;;;1.67;0.90;;;;;;;;;;5024437;28;20029;-76
2023/03/30 00:39:40;;;;;;;2.03;1.35;;;;;;;;;;5025018;28;20369;-76
2023/03/30 00:42:05;;;;;;;1.95;1.05;;;;;;;;;;5018009;28;20030;-76
2023/03/30 00:44:50;;;;;;;1.23;1.13;;;;;;;;;;5024051;28;20037;-77
2023/03/30 00:47:17;;;;;;;2.42;0.77;;;;;;;;;;5019368;28;20060;-77
2023/03/30 00:49:44;;;;;;;1.00;0.90;;;;;;;;;;5023977;28;20488;-77
2023/03/30 00:52:10;;;;;;;1.27;1.05;;;;;;;;;;5025138;28;20103;-77
2023/03/30 00:54:37;;;;;;;5.65;1.15;;;;;;;;;;5018875;28;20045;-77
2023/03/30 00:57:03;;;;;;;1.92;0.88;;;;;;;;;;5014211;28;20048;-76
2023/03/30 00:59:29;;;;;;;1.27;0.93;;;;;;;;;;5017595;28;20039;-77
2023/03/30 01:01:55;;;;;;;1.10;1.00;;;;;;;;;;5020881;28;20033;-77
2023/03/30 01:04:21;;;;;;;2.38;1.33;;;;;;;;;;5022836;28;20112;-77
2023/03/30 01:06:48;;;;;;;0.80;0.80;;;;;;;;;;5019290;28;20712;-78
2023/03/30 01:09:15;;;;;;;1.67;0.90;;;;;;;;;;5016581;28;20555;-78
2023/03/30 01:11:42;;;;;;;1.88;1.17;;;;;;;;;;5023800;28;20029;-78
2023/03/30 01:14:13;;;;;;;1.48;1.05;;;;;;;;;;5023787;28;21824;-77
2023/03/30 01:16:43;;;;;;;1.55;1.15;;;;;;;;;;5017223;28;20026;-77
2023/03/30 01:19:15;;;;;;;2.20;1.02;;;;;;;;;;5016551;28;20034;-77
2023/03/30 01:21:50;;;;;;;1.13;0.90;;;;;;;;;;5015757;28;20176;-77
2023/03/30 01:24:26;;;;;;;0.80;0.80;;;;;;;;;;5022105;28;20509;-77
2023/03/30 01:27:18;;;;;;;0.95;0.70;;;;;;;;;;5024722;28;20057;-77
2023/03/30 01:30:03;;;;;;;0.82;0.80;;;;;;;;;;5015901;28;20042;-76
2023/03/30 01:32:38;;;;;;;2.63;0.85;;;;;;;;;;5016330;28;20453;-76
2023/03/30 01:35:16;;;;;;;1.27;1.00;;;;;;;;;;5010894;28;20025;-77
2023/03/30 01:37:53;;;;;;;1.10;0.75;;;;;;;;;;5023212;28;20037;-77
2023/03/30 01:40:36;;;;;;;1.17;0.70;;;;;;;;;;5013583;28;20345;-77
2023/03/30 01:43:10;;;;;;;0.98;0.80;;;;;;;;;;5022002;28;20056;-77
2023/03/30 01:45:43;;;;;;;1.58;1.10;;;;;;;;;;5029253;28;20040;-77
2023/03/30 01:48:19;;;;;;;0.90;0.90;;;;;;;;;;5028419;28;20120;-77
2023/03/30 01:50:50;;;;;;;1.23;0.77;;;;;;;;;;5019603;28;20034;-79
2023/03/30 01:53:34;;;;;;;1.67;1.00;;;;;;;;;;5017823;28;20029;-78
2023/03/30 01:56:19;;;;;;;1.73;1.20;;;;;;;;;;5022406;28;20030;-78
2023/03/30 01:58:51;;;;;;;0.95;0.82;;;;;;;;;;5022584;28;20676;-78
2023/03/30 02:01:19;;;;;;;1.10;1.00;;;;;;;;;;5023280;28;20039;-78
2023/03/30 02:03:48;;;;;;;1.42;0.90;;;;;;;;;;5020678;28;20053;-78
2023/03/30 02:06:22;;;;;;;1.27;0.70;;;;;;;;;;5017930;28;20482;-77
2023/03/30 02:08:48;;;;;;;1.00;0.88;;;;;;;;;;5021520;28;20025;-77
2023/03/30 02:11:14;;;;;;;2.03;0.90;;;;;;;;;;5021395;28;20044;-77
2023/03/30 02:13:41;;;;;;;1.23;1.13;;;;;;;;;;5020928;28;20022;-77
2023/03/30 02:16:20;;;;;;;0.85;0.80;;;;;;;;;;5025419;28;20029;-78
2023/03/30 02:18:46;;;;;;;2.20;0.70;;;;;;;;;;5026177;28;20100;-77
2023/03/30 02:21:12;;;;;;;2.17;0.90;;;;;;;;;;5026112;28;20558;-77
2023/03/30 02:23:39;;;;;;;1.17;0.80;;;;;;;;;;5022473;28;20030;-77
2023/03/30 02:26:07;;;;;;;0.93;0.90;;;;;;;;;;5022470;28;20065;-77
2023/03/30 02:28:33;;;;;;;1.08;0.70;;;;;;;;;;5020514;28;20026;-77
2023/03/30 02:30:59;;;;;;;0.80;0.80;;;;;;;;;;5022896;28;20030;-78
2023/03/30 02:33:33;;;;;;;1.20;1.00;;;;;;;;;;5023102;28;20029;-79
2023/03/30 02:36:08;;;;;;;1.50;1.00;;;;;;;;;;5024518;28;20029;-78
2023/03/30 02:38:34;;;;;;;1.42;1.00;;;;;;;;;;5026396;28;20056;-77
2023/03/30 02:41:12;;;;;;;0.98;0.80;;;;;;;;;;5022952;28;20025;-77
2023/03/30 02:43:55;;;;;;;1.00;0.90;;;;;;;;;;5018594;28;20449;-77
2023/03/30 02:46:41;;;;;;;2.45;1.23;;;;;;;;;;5004438;28;20040;-77
2023/03/30 02:49:23;;;;;;;1.02;0.93;;;;;;;;;;5022853;28;20095;-77
2023/03/30 02:51:52;;;;;;;1.90;1.08;;;;;;;;;;5012828;28;20036;-77
2023/03/30 02:54:23;;;;;;;1.08;0.98;;;;;;;;;;5018672;28;20424;-78
2023/03/30 02:56:56;;;;;;;2.67;1.30;;;;;;;;;;5023895;28;20404;-77
2023/03/30 02:59:27;;;;;;;1.00;0.85;;;;;;;;;;5022676;28;20396;-78
2023/03/30 03:02:04;;;;;;;1.40;1.05;;;;;;;;;;5021702;28;20464;-77
2023/03/30 03:04:32;;;;;;;1.60;1.10;;;;;;;;;;5009908;28;20145;-77
2023/03/30 03:07:01;;;;;;;1.10;0.88;;;;;;;;;;5018496;28;20026;-77
2023/03/30 03:09:28;;;;;;;1.20;0.98;;;;;;;;;;5024167;28;20106;-79
2023/03/30 03:11:57;;;;;;;0.80;0.80;;;;;;;;;;5021818;28;20029;-78
2023/03/30 03:14:25;;;;;;;1.35;0.90;;;;;;;;;;5016418;28;20112;-77
2023/03/30 03:16:51;;;;;;;0.98;0.85;;;;;;;;;;5020719;28;20013;-76
2023/03/30 03:19:17;;;;;;;1.20;0.80;;;;;;;;;;5023477;28;20033;-75
2023/03/30 03:21:43;;;;;;;1.42;0.90;;;;;;;;;;5023208;28;20091;-75
2023/03/30 03:24:12;;;;;;;1.27;0.90;;;;;;;;;;5016592;28;20061;-76
2023/03/30 03:26:38;;;;;;;1.50;1.05;;;;;;;;;;5011130;28;20034;-76
2023/03/30 03:29:04;;;;;;;1.80;0.95;;;;;;;;;;5020488;28;20205;-76
2023/03/30 03:31:30;;;;;;;1.33;1.08;;;;;;;;;;5026575;28;20392;-76
2023/03/30 03:33:56;;;;;;;0.88;0.80;;;;;;;;;;5021564;28;20030;-77
2023/03/30 03:36:22;;;;;;;1.00;0.90;;;;;;;;;;5024291;28;20101;-78
2023/03/30 03:38:48;;;;;;;0.88;0.68;;;;;;;;;;5023865;28;20029;-79
2023/03/30 03:41:14;;;;;;;3.58;1.10;;;;;;;;;;5023042;28;20021;-75
2023/03/30 03:43:46;;;;;;;1.73;0.88;;;;;;;;;;5017810;28;20073;-75
2023/03/30 03:46:12;;;;;;;2.45;0.77;;;;;;;;;;5015962;28;20022;-75
2023/03/30 03:48:38;;;;;;;2.28;1.02;;;;;;;;;;5024269;28;20388;-75
2023/03/30 03:51:05;;;;;;;1.02;0.80;;;;;;;;;;5026393;28;20033;-75
2023/03/30 03:53:31;;;;;;;0.90;0.90;;;;;;;;;;5026893;28;20037;-74
2023/03/30 03:55:57;;;;;;;1.85;0.90;;;;;;;;;;5024226;28;20026;-75
2023/03/30 03:58:23;;;;;;;0.82;0.82;;;;;;;;;;5004519;28;20038;-75
2023/03/30 04:00:56;;;;;;;1.80;0.90;;;;;;;;;;5021276;28;20381;-75
2023/03/30 04:03:22;;;;;;;1.45;0.95;;;;;;;;;;5025755;28;20616;-75
2023/03/30 04:05:48;;;;;;;1.13;0.70;;;;;;;;;;5010961;28;20030;-75
2023/03/30 04:08:16;;;;;;;3.00;0.95;;;;;;;;;;5013799;28;20033;-75
2023/03/30 04:10:42;;;;;;;1.48;0.70;;;;;;;;;;5023021;28;20116;-75
2023/03/30 04:13:08;;;;;;;4.60;1.10;;;;;;;;;;5026265;28;20148;-75
2023/03/30 04:15:35;;;;;;;1.13;0.90;;;;;;;;;;5023879;28;20115;-76
2023/03/30 04:18:01;;;;;;;0.77;0.60;;;;;;;;;;5005972;28;20381;-76
2023/03/30 04:20:27;;;;;;;0.60;0.60;;;;;;;;;;5017649;28;20025;-75
2023/03/30 04:22:54;;;;;;;1.95;0.82;;;;;;;;;;5025056;28;20044;-75
2023/03/30 04:25:20;;;;;;;1.38;0.95;;;;;;;;;;5018669;28;20610;-76
2023/03/30 04:27:50;;;;;;;1.60;1.20;;;;;;;;;;5019145;28;20132;-76
2023/03/30 04:30:16;;;;;;;0.98;0.65;;;;;;;;;;5017147;28;20100;-77
2023/03/30 04:32:43;;;;;;;1.48;1.20;;;;;;;;;;5021480;28;20037;-75
2023/03/30 04:35:09;;;;;;;1.27;0.95;;;;;;;;;;5019876;28;20036;-76
2023/03/30 04:37:37;;;;;;;1.30;0.82;;;;;;;;;;5028832;28;20032;-75
2023/03/30 04:40:06;;;;;;;1.58;1.13;;;;;;;;;;5021183;28;20045;-76
2023/03/30 04:42:36;;;;;;;2.22;0.80;;;;;;;;;;5039226;28;20025;-78
2023/03/30 04:45:03;;;;;;;3.28;1.15;;;;;;;;;;5020507;28;20087;-79
2023/03/30 04:47:29;;;;;;;1.80;1.10;;;;;;;;;;5025625;28;20748;-78
2023/03/30 04:49:55;;;;;;;1.38;1.10;;;;;;;;;;5031002;28;20060;-77
2023/03/30 04:52:22;;;;;;;0.80;0.77;;;;;;;;;;5037174;28;20151;-78
2023/03/30 04:54:48;;;;;;;1.20;0.90;;;;;;;;;;5029623;28;20037;-82
2023/03/30 04:57:14;;;;;;;1.33;1.00;;;;;;;;;;5032583;28;20131;-75
2023/03/30 04:59:41;;;;;;;1.88;0.90;;;;;;;;;;5037640;28;20049;-75
2023/03/30 05:02:07;;;;;;;1.48;0.88;;;;;;;;;;5029745;28;20521;-74
2023/03/30 05:04:33;;;;;;;1.00;0.65;;;;;;;;;;5033172;28;20030;-74
2023/03/30 05:07:00;;;;;;;1.77;1.02;;;;;;;;;;5026435;28;20408;-74
2023/03/30 05:09:26;;;;;;;0.77;0.77;;;;;;;;;;5012197;28;20060;-75
2023/03/30 05:11:52;;;;;;;2.13;1.00;;;;;;;;;;5022994;28;20033;-74
2023/03/30 05:14:18;;;;;;;3.50;1.23;;;;;;;;;;5019212;28;20540;-74
2023/03/30 05:16:44;;;;;;;0.80;0.80;;;;;;;;;;5025934;28;20029;-74
2023/03/30 05:19:10;;;;;;;1.75;0.90;;;;;;;;;;5030994;28;20033;-75
2023/03/30 05:21:39;;;;;;;0.93;0.77;;;;;;;;;;5027195;28;20104;-74
2023/03/30 05:24:06;;;;;;;1.10;0.90;;;;;;;;;;5026892;28;20025;-74
2023/03/30 05:26:32;;;;;;;1.60;1.10;;;;;;;;;;5021489;28;20489;-74
2023/03/30 05:29:00;;;;;;;0.95;0.88;;;;;;;;;;5031829;28;20027;-74
2023/03/30 05:31:26;;;;;;;0.70;0.70;;;;;;;;;;5028100;28;20068;-74
2023/03/30 05:33:53;;;;;;;1.45;0.88;;;;;;;;;;5025800;28;20029;-74
2023/03/30 05:36:19;;;;;;;1.90;1.00;;;;;;;;;;5011138;28;20058;-74
2023/03/30 05:38:45;;;;;;;4.18;1.23;;;;;;;;;;5026500;28;20381;-74
2023/03/30 05:41:11;;;;;;;1.48;1.00;;;;;;;;;;5028628;28;20026;-74
2023/03/30 05:43:37;;;;;;;1.73;0.95;;;;;;;;;;5022240;28;20046;-74
2023/03/30 05:46:04;;;;;;;1.58;1.00;;;;;;;;;;5011762;28;20109;-74
2023/03/30 05:48:30;;;;;;;3.67;0.80;;;;;;;;;;5023201;28;20105;-74
2023/03/30 05:50:59;;;;;;;1.25;0.82;;;;;;;;;;5020720;28;20847;-74
2023/03/30 05:53:25;;;;;;;1.23;1.13;;;;;;;;;;5021479;28;20033;-74
2023/03/30 05:55:51;;;;;;;1.52;0.80;;;;;;;;;;5011452;28;20033;-75
2023/03/30 05:58:17;;;;;;;0.80;0.80;;;;;;;;;;5018990;28;20049;-74
2023/03/30 06:00:44;;;;;;;0.90;0.90;;;;;;;;;;5017236;28;20037;-74
2023/03/30 06:03:11;;;;;;;4.78;1.00;;;;;;;;;;5025587;28;20500;-74
2023/03/30 06:05:44;;;;;;;0.93;0.88;;;;;;;;;;5018682;28;20040;-74
2023/03/30 06:08:11;;;;;;;1.30;1.00;;;;;;;;;;5020976;28;20052;-74
2023/03/30 06:10:37;;;;;;;0.73;0.73;;;;;;;;;;5017269;28;20033;-75
2023/03/30 06:13:03;;;;;;;1.20;0.80;;;;;;;;;;5019352;28;20116;-74
2023/03/30 06:15:29;;;;;;;2.40;1.00;;;;;;;;;;5029391;28;20033;-74
2023/03/30 06:17:56;;;;;;;1.38;1.05;;;;;;;;;;5012933;28;20061;-74
2023/03/30 06:20:23;;;;;;;1.00;0.80;;;;;;;;;;5028793;28;20444;-74
2023/03/30 06:22:49;;;;;;;2.55;1.25;;;;;;;;;;5019155;28;20091;-74
2023/03/30 06:25:18;;;;;;;1.08;0.93;;;;;;;;;;5025202;28;20619;-75
2023/03/30 06:27:44;;;;;;;1.08;0.88;;;;;;;;;;5014580;28;20461;-74
2023/03/30 06:30:10;;;;;;;0.88;0.73;;;;;;;;;;5021283;28;20040;-75
2023/03/30 06:32:37;;;;;;;3.80;0.93;;;;;;;;;;5028102;28;20065;-75
2023/03/30 06:35:03;;;;;;;1.35;1.05;;;;;;;;;;5016363;28;20465;-75
2023/03/30 06:37:35;;;;;;;2.85;0.93;;;;;;;;;;5019053;28;20061;-75
2023/03/30 06:40:07;;;;;;;1.55;1.10;;;;;;;;;;5029538;28;20028;-74
2023/03/30 06:42:33;;;;;;;1.00;0.82;;;;;;;;;;5030902;28;20029;-75
2023/03/30 06:44:59;;;;;;;2.45;1.20;;;;;;;;;;5030098;28;20041;-74
2023/03/30 06:47:25;;;;;;;1.48;1.02;;;;;;;;;;5027007;28;20029;-75
2023/03/30 06:49:51;;;;;;;1.83;1.15;;;;;;;;;;5026589;28;20576;-74
2023/03/30 06:52:16;;;;;;;1.52;1.10;;;;;;;;;;5010444;28;20381;-75
2023/03/30 06:54:42;;;;;;;1.52;0.98;;;;;;;;;;5010323;28;20030;-75
2023/03/30 06:57:08;;;;;;;5.30;1.15;;;;;;;;;;5016900;28;20104;-74
2023/03/30 06:59:35;;;;;;;1.13;0.98;;;;;;;;;;5029907;28;20091;-74
2023/03/30 07:02:03;;;;;;;1.45;1.00;;;;;;;;;;5029760;28;20080;-74
2023/03/30 07:04:29;;;;;;;1.27;1.08;;;;;;;;;;5016028;28;20039;-75
2023/03/30 07:06:56;;;;;;;1.52;1.15;;;;;;;;;;5028553;28;20034;-75
2023/03/30 07:09:23;;;;;;;1.50;1.10;;;;;;;;;;5027641;28;20036;-74
2023/03/30 07:11:49;;;;;;;1.38;0.82;;;;;;;;;;5028867;28;20428;-90
2023/03/30 07:14:15;;;;;;;1.05;0.95;;;;;;;;;;5023602;28;20100;-85
2023/03/30 07:16:41;;;;;;;1.13;0.90;;;;;;;;;;5026347;28;20048;-84
2023/03/30 07:19:07;;;;;;;1.75;0.98;;;;;;;;;;5028781;28;20028;-83
2023/03/30 07:21:33;;;;;;;5.72;1.00;;;;;;;;;;5023195;28;20030;-84
2023/03/30 07:24:00;;;;;;;1.80;1.10;;;;;;;;;;5013804;28;20108;-80
2023/03/30 07:26:26;;;;;;;1.40;0.82;;;;;;;;;;5011369;28;20026;-81
2023/03/30 07:28:52;;;;;;;2.05;1.10;;;;;;;;;;5016273;28;20113;-80
2023/03/30 07:31:20;;;;;;;1.88;0.80;;;;;;;;;;5028410;28;20033;-81
2023/03/30 07:33:46;;;;;;;1.15;1.05;;;;;;;;;;5023874;28;20155;-74
2023/03/30 07:36:12;;;;;;;1.35;0.80;;;;;;;;;;5022696;28;20014;-75
2023/03/30 07:38:38;;;;;;;3.25;0.90;;;;;;;;;;5023555;28;20045;-79
2023/03/30 07:41:11;;;;;;;2.08;0.98;;;;;;;;;;5026666;28;20112;-74
2023/03/30 07:43:41;;;;;;;1.67;0.80;;;;;;;;;;5021165;28;20132;-75
2023/03/30 07:46:08;;;;;;;1.52;1.05;;;;;;;;;;5014432;28;20171;-76
2023/03/30 07:48:34;;;;;;;2.33;1.25;;;;;;;;;;5010555;28;20773;-76
2023/03/30 07:51:13;;;;;;;1.20;1.10;;;;;;;;;;5009156;28;20026;-76
2023/03/30 07:53:39;;;;;;;2.35;0.95;;;;;;;;;;5022653;28;20084;-75
2023/03/30 07:56:05;;;;;;;1.83;1.27;;;;;;;;;;5018903;28;20022;-76
2023/03/30 07:58:31;;;;;;;2.05;1.27;;;;;;;;;;5022045;28;20041;-75
2023/03/30 08:00:57;;;;;;;1.23;1.13;;;;;;;;;;5025455;28;20021;-75
2023/03/30 08:03:23;;;;;;;3.92;1.20;;;;;;;;;;5023055;28;20385;-76
2023/03/30 08:05:59;;;;;;;1.20;0.70;;;;;;;;;;5017359;28;20701;-76
2023/03/30 08:08:25;;;;;;;3.90;0.88;;;;;;;;;;5024152;28;20124;-75
2023/03/30 08:10:51;;;;;;;1.55;1.08;;;;;;;;;;5021097;28;20060;-76
2023/03/30 08:13:20;;;;;;;1.40;1.10;;;;;;;;;;5024692;28;20029;-76
2023/03/30 08:15:46;;;;;;;1.35;0.98;;;;;;;;;;5019531;28;20044;-75
2023/03/30 08:18:13;;;;;;;1.00;0.88;;;;;;;;;;5023405;28;20393;-76
2023/03/30 08:20:40;;;;;;;2.17;1.13;;;;;;;;;;5023110;28;20017;-76
2023/03/30 08:23:06;;;;;;;1.02;0.90;;;;;;;;;;5023466;28;20715;-76
2023/03/30 08:25:32;;;;;;;1.35;1.00;;;;;;;;;;5021007;28;20120;-76
2023/03/30 08:28:01;;;;;;;0.80;0.75;;;;;;;;;;5021560;28;20120;-76
2023/03/30 08:30:28;;;;;;;1.02;0.93;;;;;;;;;;5022295;28;20376;-76
2023/03/30 08:32:54;;;;;;;3.10;0.95;;;;;;;;;;5019391;28;20044;-76
2023/03/30 08:35:23;;;;;;;2.42;0.98;;;;;;;;;;5018491;28;20022;-76
2023/03/30 08:37:50;;;;;;;0.85;0.73;;;;;;;;;;5016046;28;20023;-76
2023/03/30 08:40:17;;;;;;;1.90;1.00;;;;;;;;;;5024379;28;20029;-76
2023/03/30 08:42:46;;;;;;;1.73;1.00;;;;;;;;;;5025799;28;20040;-76
2023/03/30 08:45:12;;;;;;;1.00;0.93;;;;;;;;;;5025530;28;20045;-76
2023/03/30 08:47:40;;;;;;;1.10;1.00;;;;;;;;;;5028086;28;20033;-76
2023/03/30 08:50:08;;;;;;;1.10;1.00;;;;;;;;;;5026019;28;20034;-76
2023/03/30 08:52:35;;;;;;;9.35;0.90;;;;;;;;;;5027128;28;20041;-76
2023/03/30 08:55:03;;;;;;;1.38;1.00;;;;;;;;;;5021636;28;20137;-76
2023/03/30 08:57:51;;;;;;;1.30;0.80;;;;;;;;;;5008161;28;20571;-76
2023/03/30 09:00:29;;;;;;;1.75;0.90;;;;;;;;;;5010471;28;20058;-76
2023/03/30 09:03:00;;;;;;;1.25;1.00;;;;;;;;;;5009937;28;20041;-76
2023/03/30 09:05:26;;;;;;;1.52;0.90;;;;;;;;;;5017483;28;20768;-76
2023/03/30 09:07:57;;;;;;;1.13;0.80;;;;;;;;;;5009988;28;20046;-76
2023/03/30 09:10:25;;;;;;;1.08;0.85;;;;;;;;;;5007814;28;20580;-76
2023/03/30 09:12:54;;;;;;;0.80;0.80;;;;;;;;;;5017486;28;20034;-76
2023/03/30 09:15:23;;;;;;;1.70;1.00;;;;;;;;;;5024924;28;20022;-76
2023/03/30 09:18:09;;;;;;;2.20;1.30;;;;;;;;;;5007628;28;20827;-76
2023/03/30 09:20:36;;;;;;;1.08;0.73;;;;;;;;;;4946591;28;20035;-76
2023/03/30 09:23:06;;;;;;;1.10;0.80;;;;;;;;;;5012934;28;20069;-76
2023/03/30 09:25:39;;;;;;;1.00;0.80;;;;;;;;;;5022278;28;20033;-76
2023/03/30 09:28:20;;;;;;;0.77;0.77;;;;;;;;;;5007159;28;20037;-76
2023/03/30 09:30:48;;;;;;;0.93;0.65;;;;;;;;;;5007018;28;20097;-77
2023/03/30 09:33:14;;;;;;;0.80;0.75;;;;;;;;;;5013751;28;20042;-76
2023/03/30 09:35:41;;;;;;;2.35;0.88;;;;;;;;;;5008108;28;20133;-76
2023/03/30 09:38:12;;;;;;;0.70;0.65;;;;;;;;;;5007509;28;20018;-76
2023/03/30 09:40:49;;;;;;;1.17;0.85;;;;;;;;;;5007000;28;20018;-76
2023/03/30 09:43:36;;;;;;;0.85;0.65;;;;;;;;;;5010310;28;20054;-77
2023/03/30 09:46:05;;;;;;;1.33;0.93;;;;;;;;;;5026475;28;20053;-76
2023/03/30 09:48:37;;;;;;;1.08;0.70;;;;;;;;;;5026942;28;20025;-76
2023/03/30 09:51:13;;;;;;;1.15;0.60;;;;;;;;;;5026645;28;20049;-76
2023/03/30 09:53:41;;;;;;;0.70;0.70;;;;;;;;;;5026013;28;20161;-77
2023/03/30 09:56:11;;;;;;;0.70;0.70;;;;;;;;;;5026175;28;20030;-76
2023/03/30 09:58:42;;;;;;;0.93;0.70;;;;;;;;;;5026716;28;20052;-76
2023/03/30 10:01:13;;;;;;;2.25;1.60;;;;;;;;;;5026643;28;20025;-76
2023/03/30 10:03:39;;;;;;;0.63;0.63;;;;;;;;;;5028164;28;20396;-75
2023/03/30 10:06:11;;;;;;;1.30;1.05;;;;;;;;;;5026427;28;20091;-76
2023/03/30 10:09:05;;;;;;;2.85;1.02;;;;;;;;;;5028815;28;20083;-76
2023/03/30 10:11:47;;;;;;;1.60;0.68;;;;;;;;;;5026747;28;20574;-75
2023/03/30 10:14:19;;;;;;;0.60;0.60;;;;;;;;;;5029885;28;20036;-75
2023/03/30 10:16:45;;;;;;;1.15;0.90;;;;;;;;;;5019319;28;20679;-76
2023/03/30 10:19:21;;;;;;;2.45;1.15;;;;;;;;;;5024732;28;20417;-76
2023/03/30 10:21:47;;;;;;;0.82;0.73;;;;;;;;;;5021922;28;20034;-76
2023/03/30 10:24:13;;;;;;;0.75;0.70;;;;;;;;;;5028857;28;20037;-76
2023/03/30 10:26:43;;;;;;;1.35;0.85;;;;;;;;;;5015692;28;20040;-76
2023/03/30 10:29:11;;;;;;;0.90;0.80;;;;;;;;;;5020979;28;20488;-76
2023/03/30 10:31:38;;;;;;;0.93;0.63;;;;;;;;;;5029883;28;20091;-76
2023/03/30 10:34:06;;;;;;;0.80;0.80;;;;;;;;;;5029773;28;20021;-76
2023/03/30 10:36:34;;;;;;;0.52;0.52;;;;;;;;;;5030044;28;20535;-76
2023/03/30 10:39:06;;;;;;;3.50;0.73;;;;;;;;;;5028141;28;20362;-77
2023/03/30 10:41:32;;;;;;;1.02;0.88;;;;;;;;;;5026382;28;20060;-76
2023/03/30 10:44:04;;;;;;;0.50;0.50;;;;;;;;;;5027971;28;20044;-76
2023/03/30 10:46:30;;;;;;;1.17;1.00;;;;;;;;;;5028932;28;20034;-76
2023/03/30 10:49:01;;;;;;;0.93;0.73;;;;;;;;;;5029971;28;20104;-76
2023/03/30 10:51:27;;;;;;;;;;;;;;;;;;5029953;28;20077;-76
2023/03/30 10:54:04;;;;;;;1.48;1.00;;;;;;;;;;5028178;28;20423;-76
2023/03/30 10:56:39;;;;;;;2.05;0.70;;;;;;;;;;5028004;28;20083;-77
2023/03/30 10:59:14;;;;;;;1.15;0.90;;;;;;;;;;5021572;28;20041;-76
2023/03/30 11:02:02;;;;;;;2.03;0.85;;;;;;;;;;5029269;28;20025;-77
2023/03/30 11:04:32;;;;;;;2.38;0.90;;;;;;;;;;5026542;28;20485;-76
2023/03/30 11:06:59;;;;;;;1.95;1.08;;;;;;;;;;5029360;28;20030;-77
2023/03/30 11:09:28;;;;;;;2.72;0.85;;;;;;;;;;5029393;28;20472;-76
2023/03/30 11:11:57;;;;;;;0.60;0.60;;;;;;;;;;5028864;28;20408;-77
2023/03/30 11:14:27;;;;;;;0.77;0.60;;;;;;;;;;5026061;28;20022;-77
2023/03/30 11:17:00;;;;;;;1.02;0.93;;;;;;;;;;5027272;28;20061;-77
2023/03/30 11:19:32;;;;;;;1.13;0.90;;;;;;;;;;5028872;28;20025;-77
2023/03/30 11:22:17;;;;;;;1.20;0.90;;;;;;;;;;5019996;28;20052;-77
2023/03/30 11:24:44;;;;;;;0.65;0.65;;;;;;;;;;5021447;28;20048;-77
2023/03/30 11:27:13;;;;;;;1.55;0.65;;;;;;;;;;5025719;28;20668;-77
2023/03/30 11:30:00;;;;;;;1.52;1.00;;;;;;;;;;5028616;28;20503;-77
2023/03/30 11:32:32;;;;;;;1.55;0.70;;;;;;;;;;5028136;28;20035;-76
2023/03/30 11:35:17;;;;;;;0.70;0.65;;;;;;;;;;5026707;28;20030;-77
2023/03/30 11:37:43;;;;;;;2.35;1.25;;;;;;;;;;5028960;28;20025;-76
2023/03/30 11:40:20;;;;;;;1.77;0.95;;;;;;;;;;5027236;28;20372;-77
2023/03/30 11:42:47;;;;;;;1.13;1.00;;;;;;;;;;5024139;28;20037;-77
2023/03/30 11:45:17;;;;;;;1.05;0.80;;;;;;;;;;5026796;28;20049;-77
2023/03/30 11:48:00;;;;;;;1.13;0.88;;;;;;;;;;5032345;28;20309;-77
2023/03/30 11:50:34;;;;;;;1.50;0.90;;;;;;;;;;5030146;28;20611;-76
2023/03/30 11:53:02;;;;;;;1.45;0.93;;;;;;;;;;5031201;28;20037;-76
2023/03/30 11:55:30;;;;;;;1.52;0.73;;;;;;;;;;5028807;28;20079;-77
2023/03/30 11:58:15;;;;;;;0.90;0.60;;;;;;;;;;5026190;28;20108;-77
2023/03/30 12:01:00;;;;;;;2.58;1.05;;;;;;;;;;5027895;28;20526;-77
2023/03/30 12:03:41;;;;;;;1.00;0.38;;;;;;;;;;5026642;28;20076;-76
2023/03/30 12:06:16;;;;;;;1.58;0.90;;;;;;;;;;5027592;28;20032;-77
2023/03/30 12:08:42;;;;;;;3.83;1.23;;;;;;;;;;5025508;28;20033;-77
2023/03/30 12:11:41;;;;;;;3.95;1.00;;;;;;;;;;5027482;28;20071;-76
2023/03/30 12:14:24;;;;;;;0.70;0.70;;;;;;;;;;4969050;28;20140;-77
2023/03/30 12:16:53;;;;;;;1.73;1.10;;;;;;;;;;4992801;28;20033;-76
2023/03/30 12:19:24;;;;;;;2.30;0.98;;;;;;;;;;5007701;28;20030;-77
2023/03/30 12:21:57;;;;;;;1.95;0.98;;;;;;;;;;5015661;28;20037;-77
2023/03/30 12:24:28;;;;;;;0.75;0.57;;;;;;;;;;5017658;28;20033;-76
2023/03/30 12:26:54;;;;;;;;;;;;;;;;;;5011539;28;20504;-76
2023/03/30 12:29:20;;;;;;;0.90;0.88;;;;;;;;;;5007724;28;19906;-76
2023/03/30 12:31:49;;;;;;;4.97;1.20;;;;;;;;;;5006491;28;20041;-77
2023/03/30 12:34:15;;;;;;;1.58;0.95;;;;;;;;;;5010769;28;20101;-77
2023/03/30 12:36:42;;;;;;;0.93;0.75;;;;;;;;;;5025743;28;20029;-77
2023/03/30 12:39:16;;;;;;;2.53;0.90;;;;;;;;;;5023962;28;20083;-78
2023/03/30 12:41:48;;;;;;;1.45;0.80;;;;;;;;;;5024525;28;20060;-77
2023/03/30 12:44:31;;;;;;;3.33;1.10;;;;;;;;;;5025085;28;20057;-76
2023/03/30 12:47:22;;;;;;;2.95;1.13;;;;;;;;;;5025063;28;20075;-76
2023/03/30 12:49:57;;;;;;;0.68;0.68;;;;;;;;;;5023091;28;20037;-76
2023/03/30 12:52:23;;;;;;;0.98;0.90;;;;;;;;;;5027291;28;20025;-77
2023/03/30 12:55:08;;;;;;;1.48;0.88;;;;;;;;;;5026552;28;20607;-76
2023/03/30 12:57:50;;;;;;;2.15;1.48;;;;;;;;;;5027020;28;20431;-77
2023/03/30 13:00:20;;;;;;;1.98;0.98;;;;;;;;;;5025484;28;20318;-77
2023/03/30 13:02:57;;;;;;;1.65;0.88;;;;;;;;;;5026868;28;20041;-77
2023/03/30 13:05:25;;;;;;;1.90;0.88;;;;;;;;;;5025408;28;20451;-77
2023/03/30 13:07:53;;;;;;;2.15;0.85;;;;;;;;;;5025050;28;20064;-77
2023/03/30 13:10:35;;;;;;;1.40;1.13;;;;;;;;;;5024753;28;20125;-77
2023/03/30 13:13:02;;;;;;;2.00;1.17;;;;;;;;;;5026993;28;20052;-76
2023/03/30 13:15:34;;;;;;;1.33;1.02;;;;;;;;;;5022830;28;20476;-77
2023/03/30 13:18:04;;;;;;;0.80;0.80;;;;;;;;;;5021060;28;20049;-76
2023/03/30 13:20:35;;;;;;;5.78;1.25;;;;;;;;;;5021618;28;20028;-77
2023/03/30 13:23:06;;;;;;;1.40;1.10;;;;;;;;;;5006865;28;20593;-77
2023/03/30 13:25:40;;;;;;;2.15;1.20;;;;;;;;;;5009689;28;20069;-77
2023/03/30 13:28:24;;;;;;;0.60;0.60;;;;;;;;;;5025901;28;20029;-77
2023/03/30 13:30:51;;;;;;;1.77;1.33;;;;;;;;;;5024021;28;20034;-77
2023/03/30 13:33:20;;;;;;;4.78;0.80;;;;;;;;;;5024814;28;20562;-77
2023/03/30 13:35:59;;;;;;;1.27;0.80;;;;;;;;;;5026538;28;20022;-76
2023/03/30 13:38:39;;;;;;;1.95;0.90;;;;;;;;;;5024416;28;20059;-77
2023/03/30 13:41:16;;;;;;;1.45;1.30;;;;;;;;;;5021334;28;20029;-79
2023/03/30 13:43:55;;;;;;;2.83;1.33;;;;;;;;;;5012758;28;20111;-76
2023/03/30 13:46:21;;;;;;;1.00;0.82;;;;;;;;;;5025521;28;20120;-77
2023/03/30 13:48:55;;;;;;;0.77;0.60;;;;;;;;;;5013096;28;20423;-77
2023/03/30 13:51:24;;;;;;;1.85;0.70;;;;;;;;;;5011601;28;20060;-76
2023/03/30 13:53:53;;;;;;;0.98;0.90;;;;;;;;;;5010099;28;20428;-76
2023/03/30 13:56:20;;;;;;;4.43;0.90;;;;;;;;;;5015538;28;20083;-76
2023/03/30 13:58:50;;;;;;;1.35;0.70;;;;;;;;;;5013770;28;20033;-76
2023/03/30 14:01:19;;;;;;;1.70;0.93;;;;;;;;;;5019195;28;20035;-77
2023/03/30 14:03:55;;;;;;;2.05;0.85;;;;;;;;;;5019852;28;20124;-76
2023/03/30 14:06:22;;;;;;;1.05;0.90;;;;;;;;;;5026787;28;20033;-76
2023/03/30 14:08:49;;;;;;;1.10;0.75;;;;;;;;;;5021164;28;20033;-75
2023/03/30 14:11:23;;;;;;;0.50;0.50;;;;;;;;;;5024980;28;20523;-76
2023/03/30 14:13:51;;;;;;;1.38;0.63;;;;;;;;;;5026955;28;20076;-76
2023/03/30 14:16:19;;;;;;;0.80;0.70;;;;;;;;;;5021868;28;20439;-76
2023/03/30 14:18:46;;;;;;;3.15;0.93;;;;;;;;;;5023736;28;20049;-76
2023/03/30 14:21:15;;;;;;;0.50;0.50;;;;;;;;;;5024103;28;20034;-77
2023/03/30 14:23:44;;;;;;;1.65;1.02;;;;;;;;;;5018537;28;20578;-76
2023/03/30 14:26:14;;;;;;;0.57;0.57;;;;;;;;;;5021499;28;20026;-76
2023/03/30 14:28:43;;;;;;;2.33;1.13;;;;;;;;;;5026903;28;20381;-76
2023/03/30 14:31:14;;;;;;;0.65;0.50;;;;;;;;;;5025129;28;20276;-76
2023/03/30 14:33:40;;;;;;;1.90;0.60;;;;;;;;;;5023561;28;20029;-77
2023/03/30 14:36:08;;;;;;;1.65;0.60;;;;;;;;;;5026140;28;20032;-76
2023/03/30 14:38:38;;;;;;;0.93;0.50;;;;;;;;;;5025144;28;20026;-76
2023/03/30 14:41:07;;;;;;;0.75;0.70;;;;;;;;;;5023258;28;20025;-77
2023/03/30 14:43:37;;;;;;;1.63;0.77;;;;;;;;;;5024004;28;20412;-76
2023/03/30 14:46:04;;;;;;;2.05;0.52;;;;;;;;;;5025849;28;20031;-76
2023/03/30 14:48:32;;;;;;;4.32;0.65;;;;;;;;;;5021739;28;20044;-76
2023/03/30 14:51:00;;;;;;;0.88;0.73;;;;;;;;;;5018132;28;20041;-76
2023/03/30 14:53:27;;;;;;;0.68;0.68;;;;;;;;;;5021935;28;20022;-75
2023/03/30 14:55:55;;;;;;;3.75;0.88;;;;;;;;;;5020191;28;20029;-75
2023/03/30 14:58:23;;;;;;;1.08;0.60;;;;;;;;;;5017366;28;20510;-75